createdAt,value
2023-01-18T00:01:29.761Z,92.70
2023-01-18T00:04:15.599Z,92.50
2023-01-18T00:07:03.611Z,92.50
2023-01-18T00:09:53.051Z,92.50
2023-01-18T00:12:38.376Z,92.60
2023-01-18T00:15:23.752Z,92.60
2023-01-18T00:18:09.783Z,92.70
2023-01-18T00:20:55.210Z,92.70
2023-01-18T00:23:43.688Z,92.60
2023-01-18T00:26:28.998Z,92.50
2023-01-18T00:29:15.114Z,92.50
2023-01-18T00:32:03.594Z,92.40
2023-01-18T00:34:50.543Z,92.30
2023-01-18T00:37:36.696Z,92.30
2023-01-18T00:40:25.672Z,92.30
2023-01-18T00:43:35.228Z,92.30
2023-01-18T00:46:25.546Z,92.40
2023-01-18T00:49:10.912Z,92.40
2023-01-18T00:51:58.716Z,92.50
2023-01-18T00:54:44.195Z,92.50
2023-01-18T00:57:29.965Z,92.60
2023-01-18T01:00:23.536Z,92.50
2023-01-18T01:03:09.853Z,92.50
2023-01-18T01:06:15.458Z,92.40
2023-01-18T01:09:01.212Z,92.40
2023-01-18T01:12:06.634Z,92.50
2023-01-18T01:15:10.503Z,92.40
2023-01-18T01:18:14.227Z,92.30
2023-01-18T01:21:19.288Z,92.30
2023-01-18T01:24:23.176Z,92.30
2023-01-18T01:27:10.567Z,92.30
2023-01-18T01:29:58.667Z,92.30
2023-01-18T01:32:44.760Z,92.50
2023-01-18T01:35:32.995Z,92.30
2023-01-18T01:38:21.175Z,92.20
2023-01-18T01:41:18.928Z,91.90
2023-01-18T01:44:20.010Z,92.10
2023-01-18T01:47:12.844Z,92.30
2023-01-18T01:50:03.486Z,92.30
2023-01-18T01:52:49.450Z,92.40
2023-01-18T01:55:37.496Z,92.50
2023-01-18T01:58:27.217Z,92.50
2023-01-18T02:01:15.516Z,92.60
2023-01-18T02:04:05.933Z,92.60
2023-01-18T02:06:51.992Z,92.60
2023-01-18T02:09:38.580Z,92.60
2023-01-18T02:12:28.808Z,92.70
2023-01-18T02:15:14.256Z,92.60
2023-01-18T02:18:13.793Z,92.70
2023-01-18T02:21:40.478Z,92.80
2023-01-18T02:24:58.879Z,92.80
2023-01-18T02:28:05.146Z,92.80
2023-01-18T02:31:19.194Z,92.80
2023-01-18T02:34:36.140Z,92.80
2023-01-18T02:37:32.269Z,92.80
2023-01-18T02:40:26.484Z,92.70
2023-01-18T02:43:33.663Z,92.70
2023-01-18T02:46:34.028Z,92.80
2023-01-18T02:49:23.041Z,92.70
2023-01-18T02:52:28.808Z,92.60
2023-01-18T02:55:21.103Z,92.80
2023-01-18T02:58:18.583Z,92.90
2023-01-18T03:01:18.918Z,92.90
2023-01-18T03:04:13.048Z,93.00
2023-01-18T03:07:24.308Z,93.00
2023-01-18T03:10:11.623Z,92.90
2023-01-18T03:13:10.184Z,92.90
2023-01-18T03:16:19.166Z,92.90
2023-01-18T03:19:34.387Z,92.70
2023-01-18T03:22:46.919Z,92.70
2023-01-18T03:25:35.410Z,92.70
2023-01-18T03:28:48.361Z,92.70
2023-01-18T03:32:26.820Z,92.80
2023-01-18T03:35:18.403Z,92.80
2023-01-18T03:38:04.199Z,92.80
2023-01-18T03:40:52.960Z,92.80
2023-01-18T03:43:42.094Z,92.90
2023-01-18T03:46:31.044Z,93.10
2023-01-18T03:49:20.765Z,93.00
2023-01-18T03:52:18.103Z,92.90
2023-01-18T03:55:23.979Z,92.90
2023-01-18T03:58:12.687Z,92.90
2023-01-18T04:01:07.076Z,92.80
2023-01-18T04:03:57.737Z,92.80
2023-01-18T04:06:43.557Z,92.90
2023-01-18T04:09:28.984Z,92.90
2023-01-18T04:12:17.353Z,92.80
2023-01-18T04:15:03.662Z,92.50
2023-01-18T04:17:55.985Z,92.40
2023-01-18T04:20:41.896Z,92.50
2023-01-18T04:23:27.643Z,92.50
2023-01-18T04:26:15.434Z,92.40
2023-01-18T04:29:01.557Z,92.50
2023-01-18T04:31:49.018Z,92.50
2023-01-18T04:34:34.691Z,92.60
2023-01-18T04:37:19.963Z,92.70
2023-01-18T04:40:08.699Z,92.70
2023-01-18T04:42:54.705Z,92.70
2023-01-18T04:45:40.262Z,92.80
2023-01-18T04:48:26.616Z,92.90
2023-01-18T04:51:17.389Z,92.90
2023-01-18T04:54:09.215Z,93.00
2023-01-18T04:57:03.634Z,93.10
2023-01-18T04:59:48.828Z,93.10
2023-01-18T05:02:34.421Z,92.90
2023-01-18T05:05:20.222Z,92.80
2023-01-18T05:08:05.431Z,92.90
2023-01-18T05:11:02.754Z,92.90
2023-01-18T05:13:47.920Z,92.90
2023-01-18T05:16:33.666Z,92.90
2023-01-18T05:19:18.984Z,93.00
2023-01-18T05:22:04.413Z,93.00
2023-01-18T05:24:51.006Z,93.20
2023-01-18T05:27:37.502Z,93.00
2023-01-18T05:30:24.734Z,93.00
2023-01-18T05:33:10.354Z,92.90
2023-01-18T05:35:55.679Z,93.00
2023-01-18T05:38:47.764Z,93.60
2023-01-18T05:41:33.635Z,93.20
2023-01-18T05:44:21.636Z,93.30
2023-01-18T05:47:13.301Z,92.90
2023-01-18T05:50:00.601Z,93.00
2023-01-18T05:52:46.267Z,93.00
2023-01-18T05:55:36.381Z,93.00
2023-01-18T05:58:25.363Z,93.00
2023-01-18T06:01:11.488Z,92.90
2023-01-18T06:04:09.454Z,92.90
2023-01-18T06:06:56.049Z,92.80
2023-01-18T06:09:42.968Z,92.50
2023-01-18T06:12:28.244Z,92.50
2023-01-18T06:15:26.009Z,92.70
2023-01-18T06:18:12.203Z,92.60
2023-01-18T06:21:01.870Z,92.40
2023-01-18T06:23:50.134Z,92.40
2023-01-18T06:26:35.376Z,92.50
2023-01-18T06:29:20.900Z,92.50
2023-01-18T06:32:09.535Z,92.50
2023-01-18T06:34:58.980Z,92.40
2023-01-18T06:37:47.912Z,92.30
2023-01-18T06:40:33.218Z,92.40
2023-01-18T06:43:18.696Z,92.50
2023-01-18T06:46:07.598Z,92.80
2023-01-18T06:48:53.033Z,92.90
2023-01-18T06:51:39.433Z,92.80
2023-01-18T06:54:24.876Z,92.60
2023-01-18T06:57:10.560Z,92.50
2023-01-18T06:59:58.428Z,92.50
2023-01-18T07:02:50.000Z,92.50
2023-01-18T07:05:35.695Z,92.60
2023-01-18T07:08:21.361Z,92.50
2023-01-18T07:11:12.320Z,92.70
2023-01-18T07:14:00.571Z,92.70
2023-01-18T07:16:46.162Z,92.80
2023-01-18T07:19:34.097Z,92.70
2023-01-18T07:22:19.564Z,92.70
2023-01-18T07:25:05.647Z,92.70
2023-01-18T07:27:51.534Z,92.80
2023-01-18T07:30:41.670Z,92.80
2023-01-18T07:33:28.231Z,92.80
2023-01-18T07:36:14.118Z,92.80
2023-01-18T07:39:03.527Z,92.90
2023-01-18T07:41:49.468Z,92.90
2023-01-18T07:44:37.931Z,92.90
2023-01-18T07:47:23.580Z,92.90
2023-01-18T07:50:10.509Z,93.00
2023-01-18T07:52:58.887Z,93.00
2023-01-18T07:55:44.569Z,93.00
2023-01-18T07:58:33.298Z,93.00
2023-01-18T08:01:21.155Z,93.10
2023-01-18T08:04:07.833Z,93.10
2023-01-18T08:06:53.546Z,92.90
2023-01-18T08:09:41.532Z,92.90
2023-01-18T08:12:27.539Z,92.90
2023-01-18T08:15:13.220Z,93.00
2023-01-18T08:18:05.127Z,92.90
2023-01-18T08:20:50.888Z,93.00
2023-01-18T08:23:37.329Z,93.00
2023-01-18T08:26:23.774Z,93.10
2023-01-18T08:29:09.101Z,93.20
2023-01-18T08:31:54.790Z,93.10
2023-01-18T08:34:48.439Z,93.10
2023-01-18T08:37:33.760Z,93.20
2023-01-18T08:40:20.341Z,93.20
2023-01-18T08:43:06.698Z,93.30
2023-01-18T08:45:55.067Z,93.30
2023-01-18T08:48:41.249Z,93.20
2023-01-18T08:51:34.502Z,93.10
2023-01-18T08:54:26.200Z,93.10
2023-01-18T08:57:11.512Z,93.10
2023-01-18T08:59:59.760Z,93.20
2023-01-18T09:02:44.828Z,93.10
2023-01-18T09:05:30.531Z,93.00
2023-01-18T09:08:16.381Z,93.00
2023-01-18T09:11:08.043Z,93.10
2023-01-18T09:14:00.548Z,93.00
2023-01-18T09:16:47.681Z,93.00
2023-01-18T09:19:35.928Z,93.40
2023-01-18T09:22:22.478Z,93.10
2023-01-18T09:25:08.183Z,93.10
2023-01-18T09:27:56.207Z,93.00
2023-01-18T09:30:41.821Z,93.10
2023-01-18T09:33:36.941Z,93.10
2023-01-18T09:36:29.397Z,93.00
2023-01-18T09:39:19.601Z,92.70
2023-01-18T09:42:07.652Z,92.30
2023-01-18T09:45:01.397Z,92.20
2023-01-18T09:47:49.764Z,92.20
2023-01-18T09:50:44.843Z,92.10
2023-01-18T09:53:44.448Z,91.90
2023-01-18T09:56:39.425Z,91.90
2023-01-18T09:59:40.836Z,91.90
2023-01-18T10:02:31.527Z,91.80
2023-01-18T10:05:24.190Z,91.80
2023-01-18T10:08:28.640Z,91.80
2023-01-18T10:11:36.566Z,91.80
2023-01-18T10:14:45.527Z,91.60
2023-01-18T10:17:37.116Z,91.60
2023-01-18T10:20:42.216Z,91.40
2023-01-18T10:23:38.345Z,91.40
2023-01-18T10:26:34.229Z,91.20
2023-01-18T10:29:56.881Z,90.90
2023-01-18T10:32:53.710Z,90.80
2023-01-18T10:35:45.498Z,90.60
2023-01-18T10:38:31.291Z,90.50
2023-01-18T10:41:25.670Z,90.30
2023-01-18T10:44:11.535Z,90.10
2023-01-18T10:47:01.219Z,90.10
2023-01-18T10:49:54.988Z,90.00
2023-01-18T10:52:40.842Z,89.80
2023-01-18T10:55:26.361Z,89.40
2023-01-18T10:58:14.760Z,88.30
2023-01-18T11:01:03.850Z,86.30
2023-01-18T11:03:53.009Z,85.60
2023-01-18T11:07:08.700Z,85.00
2023-01-18T11:09:59.659Z,83.30
2023-01-18T11:12:48.102Z,82.60
2023-01-18T11:15:33.400Z,82.70
2023-01-18T11:18:18.859Z,82.10
2023-01-18T11:21:11.763Z,81.80
2023-01-18T11:23:59.423Z,81.20
2023-01-18T11:26:59.367Z,80.30
2023-01-18T11:29:46.616Z,78.20
2023-01-18T11:32:35.956Z,76.20
2023-01-18T11:35:32.830Z,77.00
2023-01-18T11:38:19.047Z,74.40
2023-01-18T11:41:07.449Z,72.40
2023-01-18T11:43:59.078Z,71.60
2023-01-18T11:46:49.677Z,71.00
2023-01-18T11:49:47.202Z,67.50
2023-01-18T11:53:31.353Z,67.40
2023-01-18T11:56:26.203Z,65.70
2023-01-18T11:59:26.245Z,63.80
2023-01-18T12:02:36.889Z,60.90
2023-01-18T12:05:34.214Z,59.70
2023-01-18T12:09:06.357Z,61.30
2023-01-18T12:12:19.230Z,61.20
2023-01-18T12:15:29.173Z,61.30
2023-01-18T12:18:34.519Z,60.60
2023-01-18T12:21:35.350Z,60.50
2023-01-18T12:24:39.484Z,59.10
2023-01-18T12:28:03.893Z,56.80
2023-01-18T12:31:06.496Z,56.10
2023-01-18T12:34:12.553Z,53.50
2023-01-18T12:37:41.189Z,52.30
2023-01-18T12:41:12.375Z,52.00
2023-01-18T12:44:25.592Z,54.10
2023-01-18T12:47:38.187Z,50.00
2023-01-18T12:50:32.064Z,50.90
2023-01-18T12:53:44.417Z,53.60
2023-01-18T12:56:35.307Z,57.00
2023-01-18T12:59:45.872Z,60.20
2023-01-18T13:02:44.308Z,63.50
2023-01-18T13:05:43.282Z,65.50
2023-01-18T13:08:55.704Z,68.30
2023-01-18T13:11:43.084Z,70.50
2023-01-18T13:14:37.193Z,72.60
2023-01-18T13:17:39.945Z,73.90
2023-01-18T13:21:04.772Z,74.90
2023-01-18T13:23:56.175Z,75.90
2023-01-18T13:26:42.633Z,76.40
2023-01-18T13:29:31.805Z,76.30
2023-01-18T13:32:37.772Z,75.80
2023-01-18T13:35:33.529Z,76.00
2023-01-18T13:38:29.965Z,76.50
2023-01-18T13:41:43.301Z,76.80
2023-01-18T13:44:37.104Z,77.20
2023-01-18T13:47:47.537Z,77.50
2023-01-18T13:50:38.581Z,78.00
2023-01-18T13:53:29.500Z,78.30
2023-01-18T13:56:29.778Z,78.80
2023-01-18T13:59:25.383Z,79.30
2023-01-18T14:02:41.829Z,79.70
2023-01-18T14:05:36.316Z,79.80
2023-01-18T14:08:32.444Z,80.20
2023-01-18T14:11:29.368Z,80.60
2023-01-18T14:14:16.048Z,80.80
2023-01-18T14:17:13.818Z,81.00
2023-01-18T14:20:44.016Z,81.20
2023-01-18T14:23:37.223Z,81.10
2023-01-18T14:26:30.375Z,81.40
2023-01-18T14:29:41.894Z,81.10
2023-01-18T14:32:35.157Z,80.40
2023-01-18T14:35:25.852Z,80.00
2023-01-18T14:38:18.237Z,80.20
2023-01-18T14:41:30.837Z,80.10
2023-01-18T14:44:57.856Z,80.10
2023-01-18T14:47:46.288Z,80.70
2023-01-18T14:50:37.308Z,80.80
2023-01-18T14:53:46.406Z,81.00
2023-01-18T14:56:42.701Z,81.50
2023-01-18T14:59:33.232Z,82.10
2023-01-18T15:02:24.766Z,82.80
2023-01-18T15:05:16.985Z,83.00
2023-01-18T15:08:05.521Z,83.20
2023-01-18T15:10:51.108Z,83.70
2023-01-18T15:13:47.749Z,83.90
2023-01-18T15:16:37.129Z,84.20
2023-01-18T15:19:39.390Z,84.30
2023-01-18T15:22:31.505Z,84.70
2023-01-18T15:25:28.955Z,84.90
2023-01-18T15:28:23.642Z,84.90
2023-01-18T15:31:14.068Z,85.10
2023-01-18T15:34:00.018Z,85.20
2023-01-18T15:36:48.540Z,85.20
2023-01-18T15:39:34.309Z,85.40
2023-01-18T15:42:20.096Z,85.60
2023-01-18T15:45:16.381Z,85.90
2023-01-18T15:48:13.033Z,86.10
2023-01-18T15:51:11.675Z,86.30
2023-01-18T15:53:57.594Z,86.30
2023-01-18T15:56:45.557Z,86.50
2023-01-18T15:59:30.850Z,86.30
2023-01-18T16:02:21.642Z,86.10
2023-01-18T16:05:24.780Z,86.00
2023-01-18T16:08:20.085Z,85.70
2023-01-18T16:11:05.864Z,83.60
2023-01-18T16:13:57.572Z,82.00
2023-01-18T16:16:43.101Z,80.90
2023-01-18T16:19:32.997Z,80.50
2023-01-18T16:22:30.525Z,80.20
2023-01-18T16:25:19.734Z,80.00
2023-01-18T16:28:05.766Z,80.20
2023-01-18T16:30:56.388Z,80.20
2023-01-18T16:33:41.532Z,79.70
2023-01-18T16:36:32.006Z,80.00
2023-01-18T16:39:18.585Z,80.30
2023-01-18T16:42:03.946Z,80.60
2023-01-18T16:44:51.420Z,81.00
2023-01-18T16:47:41.009Z,81.40
2023-01-18T16:50:27.195Z,81.80
2023-01-18T16:53:13.182Z,81.90
2023-01-18T16:55:58.761Z,82.20
2023-01-18T16:58:44.249Z,82.20
2023-01-18T17:01:30.912Z,82.30
2023-01-18T17:04:17.419Z,82.20
2023-01-18T17:07:04.157Z,82.20
2023-01-18T17:09:52.529Z,82.10
2023-01-18T17:12:39.952Z,82.10
2023-01-18T17:15:28.173Z,82.00
2023-01-18T17:18:20.777Z,81.80
2023-01-18T17:21:08.727Z,81.80
2023-01-18T17:23:57.413Z,82.00
2023-01-18T17:26:43.698Z,82.00
2023-01-18T17:29:29.629Z,82.00
2023-01-18T17:32:16.606Z,81.90
2023-01-18T17:35:04.738Z,81.70
2023-01-18T17:37:57.385Z,81.90
2023-01-18T17:40:50.518Z,82.20
2023-01-18T17:43:35.768Z,82.00
2023-01-18T17:46:21.312Z,82.30
2023-01-18T17:49:06.958Z,82.20
2023-01-18T17:51:52.012Z,83.10
2023-01-18T17:54:37.940Z,84.80
2023-01-18T17:57:23.153Z,85.70
2023-01-18T18:00:13.743Z,86.50
2023-01-18T18:03:02.272Z,87.30
2023-01-18T18:05:48.179Z,87.50
2023-01-18T18:08:40.063Z,88.00
2023-01-18T18:11:25.804Z,88.40
2023-01-18T18:14:11.408Z,88.50
2023-01-18T18:16:57.322Z,88.90
2023-01-18T18:19:42.785Z,88.80
2023-01-18T18:22:28.733Z,89.40
2023-01-18T18:25:14.187Z,89.90
2023-01-18T18:27:59.709Z,90.10
2023-01-18T18:30:51.408Z,90.20
2023-01-18T18:33:36.470Z,90.30
2023-01-18T18:36:26.424Z,90.50
2023-01-18T18:39:12.119Z,90.60
2023-01-18T18:41:57.892Z,90.70
2023-01-18T18:44:43.487Z,90.80
2023-01-18T18:47:31.567Z,90.80
2023-01-18T18:50:16.915Z,91.10
2023-01-18T18:53:02.869Z,90.70
2023-01-18T18:55:48.653Z,90.80
2023-01-18T18:58:37.329Z,90.70
2023-01-18T19:01:31.884Z,90.70
2023-01-18T19:04:18.476Z,90.70
2023-01-18T19:07:10.251Z,90.70
2023-01-18T19:09:55.465Z,90.70
2023-01-18T19:12:43.536Z,90.50
2023-01-18T19:15:30.106Z,90.30
2023-01-18T19:18:15.713Z,90.40
2023-01-18T19:21:03.643Z,90.40
2023-01-18T19:23:49.124Z,90.40
2023-01-18T19:26:40.155Z,90.10
2023-01-18T19:29:25.566Z,90.10
2023-01-18T19:32:11.071Z,90.10
2023-01-18T19:34:58.924Z,90.20
2023-01-18T19:37:45.514Z,90.10
2023-01-18T19:40:33.930Z,90.00
2023-01-18T19:43:19.759Z,89.50
2023-01-18T19:46:06.633Z,90.00
2023-01-18T19:48:57.348Z,89.50
2023-01-18T19:51:45.349Z,89.70
2023-01-18T19:54:30.905Z,89.90
2023-01-18T19:57:16.340Z,89.50
2023-01-18T20:00:04.142Z,89.50
2023-01-18T20:02:58.978Z,89.60
2023-01-18T20:05:44.915Z,89.90
2023-01-18T20:08:34.200Z,90.00
2023-01-18T20:11:19.866Z,90.00
2023-01-18T20:14:06.020Z,90.10
2023-01-18T20:16:51.590Z,90.40
2023-01-18T20:19:39.882Z,90.50
2023-01-18T20:22:25.431Z,90.50
2023-01-18T20:25:14.000Z,90.50
2023-01-18T20:27:59.829Z,90.50
2023-01-18T20:30:54.018Z,90.30
2023-01-18T20:33:39.370Z,90.20
2023-01-18T20:36:25.015Z,90.10
2023-01-18T20:39:10.780Z,90.00
2023-01-18T20:41:56.003Z,89.70
2023-01-18T20:44:41.650Z,90.00
2023-01-18T20:47:30.288Z,88.70
2023-01-18T20:50:20.313Z,88.00
2023-01-18T20:53:08.600Z,87.60
2023-01-18T20:56:23.419Z,87.30
2023-01-18T20:59:13.631Z,87.00
2023-01-18T21:02:02.031Z,86.60
2023-01-18T21:04:49.083Z,86.40
2023-01-18T21:07:39.389Z,86.30
2023-01-18T21:10:38.516Z,86.30
2023-01-18T21:13:27.210Z,86.70
2023-01-18T21:16:12.916Z,87.30
2023-01-18T21:19:01.704Z,87.60
2023-01-18T21:21:49.579Z,88.10
2023-01-18T21:24:34.779Z,88.70
2023-01-18T21:27:20.249Z,89.10
2023-01-18T21:30:06.330Z,90.00
2023-01-18T21:32:51.619Z,89.60
2023-01-18T21:35:37.389Z,89.60
2023-01-18T21:38:23.201Z,89.90
2023-01-18T21:41:28.150Z,90.10
2023-01-18T21:44:37.837Z,90.20
2023-01-18T21:47:23.508Z,90.30
2023-01-18T21:50:27.627Z,90.40
2023-01-18T21:53:33.090Z,90.50
2023-01-18T21:56:19.916Z,90.60
2023-01-18T21:59:05.507Z,90.60
2023-01-18T22:01:51.022Z,90.60
2023-01-18T22:04:54.797Z,90.60
2023-01-18T22:07:43.483Z,90.50
2023-01-18T22:10:28.796Z,90.40
2023-01-18T22:13:14.337Z,90.20
2023-01-18T22:16:04.127Z,90.10
2023-01-18T22:18:49.737Z,90.10
2023-01-18T22:21:35.116Z,90.10
2023-01-18T22:24:20.648Z,90.50
2023-01-18T22:27:27.695Z,90.10
2023-01-18T22:30:16.932Z,90.20
2023-01-18T22:33:02.593Z,90.30
2023-01-18T22:35:48.268Z,90.40
2023-01-18T22:38:34.201Z,90.90
2023-01-18T22:41:25.712Z,90.90
2023-01-18T22:44:15.889Z,91.00
2023-01-18T22:47:01.843Z,91.00
2023-01-18T22:49:47.337Z,91.00
2023-01-18T22:52:33.051Z,91.00
2023-01-18T22:55:18.160Z,91.20
2023-01-18T22:58:04.065Z,91.20
2023-01-18T23:00:52.006Z,91.30
2023-01-18T23:03:37.561Z,91.40
2023-01-18T23:06:23.525Z,91.50
2023-01-18T23:09:09.851Z,91.50
2023-01-18T23:11:58.404Z,91.60
2023-01-18T23:15:02.455Z,91.70
2023-01-18T23:17:47.811Z,91.80
2023-01-18T23:20:33.260Z,91.90
2023-01-18T23:23:18.804Z,91.80
2023-01-18T23:26:04.482Z,91.80
2023-01-18T23:28:50.025Z,91.40
2023-01-18T23:31:35.756Z,91.40
2023-01-18T23:34:20.885Z,91.30
2023-01-18T23:37:09.029Z,91.40
2023-01-18T23:40:12.847Z,91.40
2023-01-18T23:43:16.551Z,91.40
2023-01-18T23:46:20.556Z,91.50
2023-01-18T23:49:26.779Z,91.40
2023-01-18T23:52:30.689Z,91.20
2023-01-18T23:55:16.104Z,91.50
2023-01-18T23:58:02.136Z,92.00
